createdAt,value
2019-01-13T00:01:13.488Z,96327.45
2019-01-13T00:03:39.412Z,96326.55
2019-01-13T00:06:05.363Z,96324.35
2019-01-13T00:08:31.433Z,96317.05
2019-01-13T00:10:57.252Z,96321.91
2019-01-13T00:13:23.069Z,96334.68
2019-01-13T00:15:52.226Z,96322.43
2019-01-13T00:18:18.316Z,96326.30
2019-01-13T00:20:46.910Z,96326.95
2019-01-13T00:23:12.768Z,96324.77
2019-01-13T00:25:41.358Z,96320.19
2019-01-13T00:28:07.185Z,96332.92
2019-01-13T00:30:35.269Z,96323.15
2019-01-13T00:33:01.102Z,96317.56
2019-01-13T00:35:27.135Z,96322.38
2019-01-13T00:37:52.942Z,96315.48
2019-01-13T00:40:18.869Z,96311.70
2019-01-13T00:42:47.491Z,96315.89
2019-01-13T00:45:14.217Z,96318.70
2019-01-13T00:47:43.480Z,96307.13
2019-01-13T00:50:14.139Z,96312.55
2019-01-13T00:52:40.256Z,96308.10
2019-01-13T00:55:07.583Z,96310.45
2019-01-13T00:57:33.422Z,96316.32
2019-01-13T00:59:59.308Z,96317.88
2019-01-13T01:02:27.923Z,96316.97
2019-01-13T01:04:54.119Z,96305.56
2019-01-13T01:07:20.908Z,96309.70
2019-01-13T01:09:46.746Z,96330.31
2019-01-13T01:12:12.854Z,96313.05
2019-01-13T01:14:38.690Z,96321.15
2019-01-13T01:17:04.792Z,96312.98
2019-01-13T01:19:33.804Z,96314.66
2019-01-13T01:22:00.049Z,96344.84
2019-01-13T01:24:28.973Z,96319.35
2019-01-13T01:26:55.092Z,96337.39
2019-01-13T01:29:24.447Z,96325.73
2019-01-13T01:31:50.272Z,96333.64
2019-01-13T01:34:16.523Z,96325.80
2019-01-13T01:36:42.345Z,96348.02
2019-01-13T01:39:11.449Z,96329.73
2019-01-13T01:41:37.547Z,96336.46
2019-01-13T01:44:06.407Z,96338.45
2019-01-13T01:46:32.210Z,96329.76
2019-01-13T01:48:58.053Z,96343.02
2019-01-13T01:51:23.901Z,96340.72
2019-01-13T01:53:49.722Z,96351.20
2019-01-13T01:56:18.582Z,96349.71
2019-01-13T01:58:44.411Z,96360.41
2019-01-13T02:01:13.255Z,96355.66
2019-01-13T02:03:39.129Z,96370.60
2019-01-13T02:06:07.804Z,96350.36
2019-01-13T02:08:33.911Z,96362.61
2019-01-13T02:11:03.476Z,96349.19
2019-01-13T02:13:29.600Z,96360.79
2019-01-13T02:15:58.638Z,96347.05
2019-01-13T02:18:24.454Z,96362.98
2019-01-13T02:20:53.574Z,96351.70
2019-01-13T02:23:19.382Z,96354.72
2019-01-13T02:25:45.218Z,96353.28
2019-01-13T02:28:11.056Z,96350.27
2019-01-13T02:30:36.865Z,96343.61
2019-01-13T02:33:03.098Z,96337.92
2019-01-13T02:35:29.273Z,96338.34
2019-01-13T02:37:57.899Z,96331.19
2019-01-13T02:40:23.716Z,96338.84
2019-01-13T02:42:54.473Z,96325.03
2019-01-13T02:45:22.897Z,96332.39
2019-01-13T02:47:48.742Z,96324.16
2019-01-13T02:50:14.998Z,96315.50
2019-01-13T02:52:44.169Z,96275.33
2019-01-13T02:55:10.181Z,96334.97
2019-01-13T02:57:39.368Z,96316.33
2019-01-13T03:00:11.997Z,96329.69
2019-01-13T03:02:37.821Z,96306.27
2019-01-13T03:05:06.765Z,96305.56
2019-01-13T03:07:32.830Z,96306.05
2019-01-13T03:09:58.681Z,96306.44
2019-01-13T03:12:24.940Z,96304.39
2019-01-13T03:14:50.895Z,96311.21
2019-01-13T03:17:16.731Z,96312.19
2019-01-13T03:19:42.855Z,96307.09
2019-01-13T03:22:08.680Z,96304.51
2019-01-13T03:24:34.516Z,96311.33
2019-01-13T03:27:00.344Z,96320.30
2019-01-13T03:29:29.277Z,96322.88
2019-01-13T03:31:55.079Z,96337.06
2019-01-13T03:34:23.843Z,96320.63
2019-01-13T03:36:49.667Z,96327.13
2019-01-13T03:39:15.549Z,96318.25
2019-01-13T03:41:41.666Z,96310.95
2019-01-13T03:44:07.511Z,96311.74
2019-01-13T03:46:33.596Z,96308.63
2019-01-13T03:48:59.441Z,96267.59
2019-01-13T03:51:28.576Z,96303.85
2019-01-13T03:53:54.389Z,96312.50
2019-01-13T03:56:23.111Z,96300.42
2019-01-13T03:58:49.201Z,96290.58
2019-01-13T04:01:19.952Z,96277.53
2019-01-13T04:03:46.093Z,96277.84
2019-01-13T04:06:12.637Z,96275.54
2019-01-13T04:08:38.476Z,96283.59
2019-01-13T04:11:07.528Z,96271.61
2019-01-13T04:13:33.424Z,96281.71
2019-01-13T04:15:59.322Z,96263.97
2019-01-13T04:18:25.248Z,96265.33
2019-01-13T04:20:51.069Z,96252.95
2019-01-13T04:23:19.897Z,96243.87
2019-01-13T04:25:46.060Z,96265.54
2019-01-13T04:28:14.962Z,96231.25
2019-01-13T04:30:41.089Z,96242.95
2019-01-13T04:33:10.061Z,96230.97
2019-01-13T04:35:36.185Z,96232.77
2019-01-13T04:38:04.787Z,96233.67
2019-01-13T04:40:30.923Z,96255.16
2019-01-13T04:42:59.739Z,96227.22
2019-01-13T04:45:25.841Z,96236.63
2019-01-13T04:47:54.689Z,96231.88
2019-01-13T04:50:20.636Z,96251.61
2019-01-13T04:52:46.980Z,96231.28
2019-01-13T04:55:12.938Z,96237.80
2019-01-13T04:57:38.806Z,96234.69
2019-01-13T05:00:08.706Z,96242.73
2019-01-13T05:02:34.551Z,96241.51
2019-01-13T05:05:00.644Z,96241.76
2019-01-13T05:07:26.489Z,96244.72
2019-01-13T05:09:53.468Z,96233.64
2019-01-13T05:12:19.270Z,96244.66
2019-01-13T05:14:49.592Z,96235.41
2019-01-13T05:17:15.416Z,96242.36
2019-01-13T05:19:44.029Z,96241.06
2019-01-13T05:22:09.875Z,96243.90
2019-01-13T05:24:38.491Z,96235.84
2019-01-13T05:27:04.421Z,96241.48
2019-01-13T05:29:30.374Z,96218.69
2019-01-13T05:31:56.205Z,96218.38
2019-01-13T05:34:22.017Z,96211.17
2019-01-13T05:36:50.595Z,96206.02
2019-01-13T05:39:16.436Z,96232.57
2019-01-13T05:41:45.099Z,96211.72
2019-01-13T05:44:11.168Z,96224.23
2019-01-13T05:46:40.686Z,96218.67
2019-01-13T05:49:06.517Z,96208.88
2019-01-13T05:51:35.456Z,96155.73
2019-01-13T05:54:01.277Z,96200.92
2019-01-13T05:56:28.578Z,96185.29
2019-01-13T05:58:54.406Z,96177.98
2019-01-13T06:01:40.458Z,96161.16
2019-01-13T06:04:06.548Z,96171.55
2019-01-13T06:06:32.403Z,96161.63
2019-01-13T06:08:58.463Z,96106.25
2019-01-13T06:11:24.298Z,96170.72
2019-01-13T06:13:50.152Z,96171.55
2019-01-13T06:16:15.964Z,96162.92
2019-01-13T06:18:42.101Z,96159.05
2019-01-13T06:21:08.186Z,96155.09
2019-01-13T06:23:34.357Z,96162.45
2019-01-13T06:26:00.570Z,96158.58
2019-01-13T06:28:26.460Z,96159.33
2019-01-13T06:30:52.273Z,96153.66
2019-01-13T06:33:18.129Z,96146.05
2019-01-13T06:35:44.253Z,96138.63
2019-01-13T06:38:10.082Z,96138.19
2019-01-13T06:40:35.883Z,96146.30
2019-01-13T06:43:01.758Z,96141.52
2019-01-13T06:48:07.806Z,96148.18
2019-01-13T06:50:33.973Z,96150.84
2019-01-13T06:53:00.077Z,96148.26
2019-01-13T06:55:25.936Z,96144.93
2019-01-13T06:57:51.757Z,96138.23
2019-01-13T07:00:21.362Z,96143.08
2019-01-13T07:02:47.487Z,96138.39
2019-01-13T07:05:13.324Z,96135.81
2019-01-13T07:07:39.462Z,96123.89
2019-01-13T07:10:08.391Z,96116.59
2019-01-13T07:12:34.554Z,96114.34
2019-01-13T07:15:00.701Z,96053.02
2019-01-13T07:17:26.532Z,96119.13
2019-01-13T07:19:52.651Z,96112.50
2019-01-13T07:22:18.496Z,96108.41
2019-01-13T07:24:44.323Z,96104.24
2019-01-13T07:27:10.479Z,96099.09
2019-01-13T07:29:36.411Z,96097.66
2019-01-13T07:32:02.535Z,96095.22
2019-01-13T07:34:28.326Z,96089.52
2019-01-13T07:36:57.043Z,96081.58
2019-01-13T07:39:22.854Z,96104.03
2019-01-13T07:41:51.757Z,96088.03
2019-01-13T07:44:17.685Z,96092.93
2019-01-13T07:46:46.260Z,96078.14
2019-01-13T07:49:12.090Z,96090.31
2019-01-13T07:51:40.973Z,96070.83
2019-01-13T07:54:06.852Z,96080.08
2019-01-13T07:56:32.820Z,96069.08
2019-01-13T07:58:58.606Z,96061.63
2019-01-13T08:01:24.557Z,96071.47
2019-01-13T08:03:53.436Z,96066.97
2019-01-13T08:06:19.246Z,96066.97
2019-01-13T08:08:45.194Z,96053.21
2019-01-13T08:11:11.002Z,96044.98
2019-01-13T08:13:42.447Z,96043.78
2019-01-13T08:16:08.329Z,96046.58
2019-01-13T08:18:37.205Z,96044.98
2019-01-13T08:21:03.005Z,96054.97
2019-01-13T08:23:31.833Z,96041.71
2019-01-13T08:25:57.694Z,96051.26
2019-01-13T08:28:26.343Z,96030.12
2019-01-13T08:30:52.204Z,96042.41
2019-01-13T08:33:18.032Z,96029.15
2019-01-13T08:35:43.893Z,96022.17
2019-01-13T08:38:09.706Z,96037.47
2019-01-13T08:40:38.617Z,96033.48
2019-01-13T08:43:04.425Z,96035.05
2019-01-13T08:45:33.371Z,96039.30
2019-01-13T08:47:59.206Z,95838.74
2019-01-13T08:50:28.196Z,96043.75
2019-01-13T08:52:54.408Z,96061.94
2019-01-13T08:55:20.688Z,96039.89
2019-01-13T08:57:46.631Z,96033.73
2019-01-13T09:00:26.509Z,96036.24
2019-01-13T09:02:52.379Z,96051.97
2019-01-13T09:05:18.404Z,96020.76
2019-01-13T09:07:44.533Z,96021.66
2019-01-13T09:10:13.176Z,96027.57
2019-01-13T09:12:38.995Z,96023.05
2019-01-13T09:15:08.759Z,96028.36
2019-01-13T09:17:34.574Z,96035.70
2019-01-13T09:20:00.372Z,96034.70
2019-01-13T09:22:26.202Z,96036.89
2019-01-13T09:24:52.002Z,96035.98
2019-01-13T09:27:17.860Z,96038.02
2019-01-13T09:29:43.923Z,96030.68
2019-01-13T09:32:09.755Z,96040.45
2019-01-13T09:34:35.573Z,96030.77
2019-01-13T09:37:01.716Z,96029.27
2019-01-13T09:39:27.670Z,95964.16
2019-01-13T09:41:54.794Z,96034.58
2019-01-13T09:44:20.647Z,96046.98
2019-01-13T09:46:46.514Z,96024.22
2019-01-13T09:49:12.394Z,96030.87
2019-01-13T09:51:38.318Z,96025.41
2019-01-13T09:54:06.542Z,96026.57
2019-01-13T09:56:32.386Z,96035.27
2019-01-13T09:59:01.729Z,96012.72
2019-01-13T10:01:27.694Z,96001.19
2019-01-13T10:03:56.296Z,96007.41
2019-01-13T10:06:22.236Z,96013.53
2019-01-13T10:08:51.280Z,95993.93
2019-01-13T10:11:17.209Z,95992.95
2019-01-13T10:13:46.619Z,95987.20
2019-01-13T10:16:12.432Z,96011.45
2019-01-13T10:18:41.376Z,95986.69
2019-01-13T10:21:07.204Z,95977.13
2019-01-13T10:23:33.319Z,95967.06
2019-01-13T10:25:59.153Z,95964.16
2019-01-13T10:28:25.258Z,95944.84
2019-01-13T10:31:02.995Z,95940.59
2019-01-13T10:33:23.594Z,95939.70
2019-01-13T10:35:49.838Z,95930.75
2019-01-13T10:38:15.702Z,95931.19
2019-01-13T10:40:41.529Z,95930.59
2019-01-13T10:43:07.630Z,95931.87
2019-01-13T10:45:36.581Z,95916.64
2019-01-13T10:48:02.930Z,95934.91
2019-01-13T10:50:32.387Z,95916.34
2019-01-13T10:52:59.710Z,95925.14
2019-01-13T10:55:25.624Z,95905.15
2019-01-13T10:57:51.767Z,95891.80
2019-01-13T11:00:22.713Z,95889.45
2019-01-13T11:02:48.532Z,95885.52
2019-01-13T11:05:14.382Z,95883.92
2019-01-13T11:07:40.589Z,95877.11
2019-01-13T11:10:18.737Z,95863.08
2019-01-13T11:12:44.691Z,95847.55
2019-01-13T11:15:13.226Z,95825.95
2019-01-13T11:17:39.035Z,95825.95
2019-01-13T11:20:08.717Z,95832.09
2019-01-13T11:22:34.837Z,95820.73
2019-01-13T11:25:00.968Z,95808.77
2019-01-13T11:27:26.794Z,95807.01
2019-01-13T11:29:52.675Z,95803.69
2019-01-13T11:32:18.808Z,95795.17
2019-01-13T11:34:44.621Z,95783.38
2019-01-13T11:37:10.468Z,95769.59
2019-01-13T11:39:36.599Z,95768.47
2019-01-13T11:42:02.420Z,95770.33
2019-01-13T11:44:28.270Z,95757.61
2019-01-13T11:46:54.088Z,95759.64
2019-01-13T11:49:20.248Z,95751.67
2019-01-13T11:51:46.323Z,95736.44
2019-01-13T11:54:12.166Z,95730.17
2019-01-13T11:56:38.025Z,95722.52
2019-01-13T11:59:07.563Z,95723.30
2019-01-13T12:01:33.392Z,95747.28
2019-01-13T12:04:01.985Z,95721.91
2019-01-13T12:06:28.098Z,95724.13
2019-01-13T12:08:56.978Z,95729.44
2019-01-13T12:11:22.793Z,95711.50
2019-01-13T12:13:48.632Z,95699.45
2019-01-13T12:16:14.745Z,95696.34
2019-01-13T12:18:40.853Z,95695.15
2019-01-13T12:21:09.847Z,95700.79
2019-01-13T12:23:35.701Z,95703.77
2019-01-13T12:26:04.499Z,95684.76
2019-01-13T12:28:30.429Z,95673.41
2019-01-13T12:30:59.596Z,95668.04
2019-01-13T12:33:25.399Z,95668.69
2019-01-13T12:35:54.088Z,95666.45
2019-01-13T12:38:19.912Z,95678.28
2019-01-13T12:40:49.110Z,95653.27
2019-01-13T12:43:14.960Z,95675.41
2019-01-13T12:45:43.664Z,95631.72
2019-01-13T12:48:09.571Z,95628.13
2019-01-13T12:50:35.778Z,95626.34
2019-01-13T12:53:01.738Z,95631.86
2019-01-13T12:55:27.563Z,95621.86
2019-01-13T12:57:53.424Z,95618.52
2019-01-13T13:00:19.542Z,95620.36
2019-01-13T13:02:48.615Z,95606.86
2019-01-13T13:05:15.358Z,95613.69
2019-01-13T13:07:42.901Z,95607.58
2019-01-13T13:10:15.409Z,95609.50
2019-01-13T13:12:41.498Z,95599.70
2019-01-13T13:15:07.988Z,95603.58
2019-01-13T13:17:33.813Z,95602.47
2019-01-13T13:19:59.632Z,95612.91
2019-01-13T13:22:27.022Z,95602.25
2019-01-13T13:24:52.841Z,95602.70
2019-01-13T13:27:18.702Z,95586.24
2019-01-13T13:29:44.627Z,95562.02
2019-01-13T13:32:10.460Z,95554.08
2019-01-13T13:34:39.064Z,95586.71
2019-01-13T13:37:05.253Z,95602.06
2019-01-13T13:39:34.140Z,95585.38
2019-01-13T13:41:59.947Z,95577.56
2019-01-13T13:44:28.803Z,95578.14
2019-01-13T13:46:54.948Z,95577.11
2019-01-13T13:49:24.070Z,95570.06
2019-01-13T13:51:50.159Z,95573.68
2019-01-13T13:54:17.302Z,95580.02
2019-01-13T13:56:43.414Z,95569.27
2019-01-13T13:59:12.835Z,95574.08
2019-01-13T14:01:38.686Z,95562.79
2019-01-13T14:04:04.752Z,95562.79
2019-01-13T14:06:30.590Z,95575.64
2019-01-13T14:08:56.416Z,95563.90
2019-01-13T14:11:25.548Z,95553.06
2019-01-13T14:13:51.384Z,95557.21
2019-01-13T14:16:18.938Z,95552.83
2019-01-13T14:18:44.763Z,95543.02
2019-01-13T14:21:13.485Z,95547.25
2019-01-13T14:23:39.601Z,95530.91
2019-01-13T14:26:08.212Z,95517.20
2019-01-13T14:28:34.082Z,95522.47
2019-01-13T14:31:03.069Z,95512.79
2019-01-13T14:33:28.949Z,95531.17
2019-01-13T14:35:57.555Z,95516.19
2019-01-13T14:38:23.405Z,95536.00
2019-01-13T14:40:49.225Z,95529.88
2019-01-13T14:43:15.349Z,95522.11
2019-01-13T14:45:41.299Z,95510.91
2019-01-13T14:48:10.219Z,95509.63
2019-01-13T14:50:36.048Z,95504.09
2019-01-13T14:53:05.447Z,95510.16
2019-01-13T14:55:31.555Z,95503.25
2019-01-13T14:58:00.154Z,95481.42
2019-01-13T15:00:29.536Z,95495.39
2019-01-13T15:02:55.529Z,95476.13
2019-01-13T15:05:21.600Z,95467.28
2019-01-13T15:07:50.582Z,95449.36
2019-01-13T15:10:18.752Z,95460.19
2019-01-13T15:12:44.889Z,95434.19
2019-01-13T15:15:12.710Z,95451.76
2019-01-13T15:17:38.974Z,95442.84
2019-01-13T15:20:08.861Z,95434.89
2019-01-13T15:22:34.997Z,95447.52
2019-01-13T15:25:01.092Z,95462.01
2019-01-13T15:27:27.007Z,95442.60
2019-01-13T15:29:52.839Z,95452.95
2019-01-13T15:32:18.740Z,95457.19
2019-01-13T15:34:44.606Z,95455.54
2019-01-13T15:37:10.449Z,95468.48
2019-01-13T15:39:39.331Z,95462.37
2019-01-13T15:42:05.133Z,95477.90
2019-01-13T15:44:33.730Z,95463.30
2019-01-13T15:46:59.531Z,95459.30
2019-01-13T15:49:28.403Z,95453.19
2019-01-13T15:51:54.336Z,95485.84
2019-01-13T15:54:20.177Z,95461.67
2019-01-13T15:56:46.030Z,95467.73
2019-01-13T15:59:12.222Z,95463.95
2019-01-13T16:01:41.119Z,95464.16
2019-01-13T16:04:06.994Z,95445.12
2019-01-13T16:06:35.802Z,95450.55
2019-01-13T16:09:02.928Z,95416.66
2019-01-13T16:11:28.826Z,95412.06
2019-01-13T16:13:54.646Z,95430.31
2019-01-13T16:16:23.939Z,95423.30
2019-01-13T16:18:49.777Z,95413.56
2019-01-13T16:21:18.579Z,95423.12
2019-01-13T16:23:44.417Z,95429.94
2019-01-13T16:26:13.667Z,95418.02
2019-01-13T16:28:39.509Z,95413.23
2019-01-13T16:31:05.360Z,95407.48
2019-01-13T16:33:31.189Z,95423.53
2019-01-13T16:35:57.048Z,95414.20
2019-01-13T16:38:25.941Z,95428.80
2019-01-13T16:40:51.765Z,95408.09
2019-01-13T16:43:20.111Z,95395.86
2019-01-13T16:45:45.955Z,95400.14
2019-01-13T16:48:15.070Z,95398.09
2019-01-13T16:50:40.908Z,95403.63
2019-01-13T16:53:09.929Z,95384.38
2019-01-13T16:55:36.142Z,95371.20
2019-01-13T16:58:05.028Z,95374.86
2019-01-13T17:00:31.124Z,95372.30
2019-01-13T17:03:00.137Z,95368.19
2019-01-13T17:05:27.283Z,95355.50
2019-01-13T17:07:53.188Z,95353.52
2019-01-13T17:10:20.847Z,95362.84
2019-01-13T17:12:46.760Z,95349.57
2019-01-13T17:15:14.813Z,95360.97
2019-01-13T17:17:40.682Z,95346.83
2019-01-13T17:20:10.005Z,95322.20
2019-01-13T17:22:35.861Z,95328.80
2019-01-13T17:25:03.881Z,95338.77
2019-01-13T17:27:29.735Z,95332.30
2019-01-13T17:29:55.551Z,95329.00
2019-01-13T17:32:21.394Z,95332.43
2019-01-13T17:34:50.250Z,95323.98
2019-01-13T17:37:16.337Z,95330.09
2019-01-13T17:39:45.675Z,95302.33
2019-01-13T17:42:11.528Z,95309.51
2019-01-13T17:44:37.462Z,95310.22
2019-01-13T17:47:03.278Z,95325.66
2019-01-13T17:49:29.437Z,95318.92
2019-01-13T17:51:55.250Z,95335.33
2019-01-13T17:54:21.117Z,95330.41
2019-01-13T17:56:49.749Z,95306.05
2019-01-13T17:59:15.898Z,95324.30
2019-01-13T18:01:46.273Z,95306.91
2019-01-13T18:04:12.120Z,95314.77
2019-01-13T18:06:40.987Z,95325.67
2019-01-13T18:09:07.233Z,95311.23
2019-01-13T18:11:34.248Z,95322.66
2019-01-13T18:14:00.389Z,95336.78
2019-01-13T18:16:29.672Z,95332.30
2019-01-13T18:18:55.548Z,95348.81
2019-01-13T18:21:21.426Z,95336.23
2019-01-13T18:23:47.378Z,95332.95
2019-01-13T18:26:13.186Z,95345.96
2019-01-13T18:28:42.326Z,95324.04
2019-01-13T18:31:08.485Z,95341.13
2019-01-13T18:33:35.479Z,95328.17
2019-01-13T18:36:01.697Z,95342.08
2019-01-13T18:38:30.443Z,95343.37
2019-01-13T18:40:56.284Z,95339.69
2019-01-13T18:43:24.371Z,95324.14
2019-01-13T18:45:50.286Z,95345.02
2019-01-13T18:48:23.623Z,95317.66
2019-01-13T18:50:49.469Z,95303.65
2019-01-13T18:53:15.318Z,95195.30
2019-01-13T18:55:41.184Z,95286.90
2019-01-13T18:58:07.333Z,95280.63
2019-01-13T19:00:33.274Z,95276.72
2019-01-13T19:02:59.218Z,95272.03
2019-01-13T19:05:28.597Z,95267.55
2019-01-13T19:07:54.599Z,95267.83
2019-01-13T19:10:27.146Z,95252.40
2019-01-13T19:12:59.930Z,95243.83
2019-01-13T19:15:26.189Z,95261.97
2019-01-13T19:17:54.219Z,95249.72
2019-01-13T19:20:20.117Z,95242.19
2019-01-13T19:22:45.922Z,95244.44
2019-01-13T19:25:14.277Z,95237.16
2019-01-13T19:27:40.109Z,95233.02
2019-01-13T19:30:13.037Z,95238.20
2019-01-13T19:32:38.869Z,95246.77
2019-01-13T19:35:07.999Z,95241.12
2019-01-13T19:37:34.152Z,95247.36
2019-01-13T19:40:00.000Z,95246.77
2019-01-13T19:42:26.119Z,95249.84
2019-01-13T19:44:51.930Z,95247.02
2019-01-13T19:47:17.761Z,95245.02
2019-01-13T19:49:43.862Z,95254.09
2019-01-13T19:52:09.721Z,95264.45
2019-01-13T19:54:35.899Z,95257.73
2019-01-13T19:57:01.812Z,95261.38
2019-01-13T19:59:27.628Z,95260.47
2019-01-13T20:01:53.463Z,95269.53
2019-01-13T20:04:19.269Z,95255.03
2019-01-13T20:06:45.388Z,95260.47
2019-01-13T20:09:11.589Z,95267.63
2019-01-13T20:11:37.510Z,95256.67
2019-01-13T20:14:03.950Z,95245.22
2019-01-13T20:16:29.758Z,95245.80
2019-01-13T20:18:56.821Z,95259.30
2019-01-13T20:21:22.885Z,95234.43
2019-01-13T20:23:53.922Z,95230.30
2019-01-13T20:26:19.796Z,95231.81
2019-01-13T20:28:48.789Z,95236.58
2019-01-13T20:31:14.602Z,95248.31
2019-01-13T20:33:43.410Z,95233.02
2019-01-13T20:36:09.504Z,95252.07
2019-01-13T20:38:35.430Z,95242.42
2019-01-13T20:41:01.498Z,95250.19
2019-01-13T20:43:32.254Z,95240.42
2019-01-13T20:45:58.379Z,95255.02
2019-01-13T20:48:24.473Z,95242.53
2019-01-13T20:50:50.319Z,95236.19
2019-01-13T20:53:16.189Z,95247.68
2019-01-13T20:55:42.025Z,95259.35
2019-01-13T20:58:07.853Z,95249.20
2019-01-13T21:00:36.484Z,95249.20
2019-01-13T21:03:02.385Z,95256.88
2019-01-13T21:05:32.047Z,95281.91
2019-01-13T21:07:57.872Z,95287.09
2019-01-13T21:10:27.028Z,95289.32
2019-01-13T21:12:52.967Z,95294.50
2019-01-13T21:15:24.648Z,95303.75
2019-01-13T21:17:57.220Z,95320.64
2019-01-13T21:20:18.303Z,95310.52
2019-01-13T21:22:44.250Z,95297.32
2019-01-13T21:25:13.093Z,95309.45
2019-01-13T21:27:39.116Z,95320.25
2019-01-13T21:30:18.345Z,95312.97
2019-01-13T21:32:44.481Z,95292.47
2019-01-13T21:35:10.692Z,95296.34
2019-01-13T21:37:36.530Z,95299.09
2019-01-13T21:40:05.985Z,95298.16
2019-01-13T21:42:31.811Z,95302.04
2019-01-13T21:44:57.632Z,95299.20
2019-01-13T21:47:23.492Z,95286.48
2019-01-13T21:49:49.583Z,95282.83
2019-01-13T21:52:15.433Z,95285.19
2019-01-13T21:54:41.519Z,95272.87
2019-01-13T21:57:07.361Z,95280.98
2019-01-13T21:59:33.508Z,95288.52
2019-01-13T22:01:59.638Z,95277.39
2019-01-13T22:04:25.476Z,95281.72
2019-01-13T22:06:51.318Z,95277.23
2019-01-13T22:09:17.168Z,95277.23
2019-01-13T22:11:43.011Z,95276.09
2019-01-13T22:14:08.889Z,95271.73
2019-01-13T22:16:34.721Z,95267.06
2019-01-13T22:19:03.550Z,95274.48
2019-01-13T22:21:29.353Z,95279.16
2019-01-13T22:23:58.245Z,95266.71
2019-01-13T22:26:24.061Z,95268.72
2019-01-13T22:28:52.904Z,95251.09
2019-01-13T22:31:22.408Z,95264.86
2019-01-13T22:33:46.729Z,95248.17
2019-01-13T22:36:12.543Z,95234.70
2019-01-13T22:38:38.370Z,95234.70
2019-01-13T22:41:04.491Z,95258.18
2019-01-13T22:43:30.585Z,95247.96
2019-01-13T22:45:59.575Z,95236.31
2019-01-13T22:48:25.420Z,95259.34
2019-01-13T22:50:54.590Z,95233.93
2019-01-13T22:53:20.430Z,95251.94
2019-01-13T22:55:47.879Z,95244.08
2019-01-13T22:58:13.705Z,95253.46
2019-01-13T23:00:48.545Z,95239.78
2019-01-13T23:03:14.384Z,95241.82
2019-01-13T23:05:40.439Z,95241.43
2019-01-13T23:08:06.384Z,95242.73
2019-01-13T23:10:32.560Z,95229.08
2019-01-13T23:12:58.421Z,95231.77
2019-01-13T23:15:24.313Z,95231.22
2019-01-13T23:17:50.122Z,95226.49
2019-01-13T23:20:16.058Z,95228.73
2019-01-13T23:22:44.992Z,95224.84
2019-01-13T23:25:10.944Z,95233.74
2019-01-13T23:27:37.949Z,95228.57
2019-01-13T23:30:06.383Z,95236.33
2019-01-13T23:32:35.783Z,95239.50
2019-01-13T23:35:01.603Z,95280.18
2019-01-13T23:37:27.516Z,95330.10
2019-01-13T23:39:53.346Z,95366.72
2019-01-13T23:42:22.197Z,95361.16
2019-01-13T23:44:48.037Z,95346.91
2019-01-13T23:47:18.494Z,95344.59
2019-01-13T23:49:44.614Z,95351.95
2019-01-13T23:52:10.705Z,95337.78
2019-01-13T23:54:36.542Z,95337.95
2019-01-13T23:57:02.862Z,95326.56
2019-01-13T23:59:28.701Z,95316.54
